Time;durP1;ratioP1;P1;durP2;ratioP2;P2;SDS_P1;SDS_P2;PMS_P1;PMS_P2;Temp;Humidity;BMP_temperature;BMP_pressure;BME280_temperature;BME280_humidity;BME280_pressure;Samples;Min_cycle;Max_cycle;Signal;HPM_P1;HPM_P2
2022/09/29 00:01:47;;;;;;;2.67;2.30;;;8.10;99.90;;;;;;4994799;28;20442;-70
2022/09/29 00:04:13;;;;;;;2.95;2.60;;;8.10;99.90;;;;;;4976792;28;20046;-70
2022/09/29 00:06:39;;;;;;;3.45;2.78;;;8.10;99.90;;;;;;4976950;28;20046;-70
2022/09/29 00:09:04;;;;;;;5.25;2.80;;;8.10;99.90;;;;;;4960288;28;20042;-70
2022/09/29 00:11:30;;;;;;;5.75;3.63;;;8.10;99.90;;;;;;4976982;28;20054;-70
2022/09/29 00:13:55;;;;;;;3.85;3.08;;;8.10;99.90;;;;;;4976710;28;20048;-70
2022/09/29 00:16:21;;;;;;;3.75;2.80;;;8.10;99.90;;;;;;4976751;28;20054;-70
2022/09/29 00:18:47;;;;;;;3.08;2.78;;;8.10;99.90;;;;;;4976579;28;20419;-70
2022/09/29 00:21:15;;;;;;;3.20;2.42;;;8.10;99.90;;;;;;4976597;28;20034;-70
2022/09/29 00:23:41;;;;;;;3.53;2.85;;;8.10;99.90;;;;;;4976591;28;20089;-70
2022/09/29 00:26:11;;;;;;;4.75;3.20;;;8.10;99.90;;;;;;4976448;28;20046;-70
2022/09/29 00:28:39;;;;;;;3.40;3.10;;;8.10;99.90;;;;;;4976552;28;20166;-70
2022/09/29 00:31:06;;;;;;;3.42;3.13;;;8.10;99.90;;;;;;4994174;28;20049;-70
2022/09/29 00:33:34;;;;;;;5.32;2.90;;;8.10;99.90;;;;;;4976448;28;20495;-70
2022/09/29 00:36:03;;;;;;;5.10;3.08;;;8.10;99.90;;;;;;4976514;28;20038;-70
2022/09/29 00:38:30;;;;;;;4.45;2.95;;;8.00;99.90;;;;;;4976447;28;20038;-70
2022/09/29 00:40:56;;;;;;;5.05;3.42;;;8.00;99.90;;;;;;4976655;28;20086;-69
2022/09/29 00:43:44;;;;;;;5.85;3.08;;;8.00;99.90;;;;;;4960255;28;20514;-69
2022/09/29 00:46:12;;;;;;;3.85;2.55;;;8.00;99.90;;;;;;4976103;28;20038;-70
2022/09/29 00:48:39;;;;;;;4.97;3.10;;;7.90;99.90;;;;;;4976318;28;20042;-70
2022/09/29 00:51:05;;;;;;;3.17;2.70;;;7.90;99.90;;;;;;4976265;28;20480;-70
2022/09/29 00:53:31;;;;;;;3.17;2.47;;;7.90;99.90;;;;;;4976533;28;20121;-70
2022/09/29 00:56:04;;;;;;;4.53;3.08;;;7.80;99.90;;;;;;4976393;28;20054;-70
2022/09/29 00:58:32;;;;;;;26.27;3.77;;;7.80;99.90;;;;;;4960127;28;20049;-70
2022/09/29 01:00:58;;;;;;;19.10;3.20;;;7.80;99.90;;;;;;4976207;28;20404;-70
2022/09/29 01:03:29;;;;;;;3.78;2.80;;;7.70;99.90;;;;;;4976124;28;20049;-70
2022/09/29 01:06:03;;;;;;;3.28;2.80;;;7.70;99.90;;;;;;4976094;28;20396;-70
2022/09/29 01:08:56;;;;;;;2.75;2.40;;;7.60;99.90;;;;;;4976140;28;20057;-70
2022/09/29 01:11:22;;;;;;;3.50;2.58;;;7.70;99.90;;;;;;4976177;28;20125;-70
2022/09/29 01:13:49;;;;;;;3.75;3.20;;;7.60;99.90;;;;;;4976067;28;20201;-70
2022/09/29 01:16:16;;;;;;;5.20;3.60;;;7.60;99.90;;;;;;4976130;28;20525;-70
2022/09/29 01:18:43;;;;;;;3.88;3.50;;;7.60;99.90;;;;;;4976080;28;20046;-70
2022/09/29 01:21:35;;;;;;;4.20;3.50;;;7.60;99.90;;;;;;4978596;28;20554;-70
2022/09/29 01:24:12;;;;;;;10.35;3.05;;;7.60;99.90;;;;;;4950776;28;20046;-70
2022/09/29 01:27:10;;;;;;;3.28;2.92;;;7.60;99.90;;;;;;4979619;28;20042;-70
2022/09/29 01:30:07;;;;;;;3.67;2.80;;;7.60;99.90;;;;;;4979883;28;20415;-70
2022/09/29 01:32:54;;;;;;;5.55;3.00;;;7.50;99.90;;;;;;4979813;28;20042;-70
2022/09/29 01:35:25;;;;;;;5.75;3.25;;;7.50;99.90;;;;;;4979708;28;20403;-70
2022/09/29 01:38:07;;;;;;;3.90;3.50;;;7.50;99.90;;;;;;4979350;28;20074;-70
2022/09/29 01:40:38;;;;;;;4.70;3.55;;;7.50;99.90;;;;;;4979526;28;20030;-70
2022/09/29 01:43:08;;;;;;;6.40;3.80;;;7.50;99.90;;;;;;4979409;28;20043;-70
2022/09/29 01:45:38;;;;;;;4.90;4.40;;;7.40;99.90;;;;;;4997364;28;20470;-70
2022/09/29 01:48:12;;;;;;;5.88;4.40;;;7.40;99.90;;;;;;4979609;28;20093;-70
2022/09/29 01:50:45;;;;;;;6.20;4.45;;;7.40;99.90;;;;;;4979269;28;20122;-70
2022/09/29 01:53:15;;;;;;;4.88;3.90;;;7.40;99.90;;;;;;4979262;28;20502;-70
2022/09/29 01:55:47;;;;;;;4.35;3.53;;;7.40;99.90;;;;;;4979343;28;20046;-70
2022/09/29 01:58:31;;;;;;;5.63;3.17;;;7.40;99.90;;;;;;4979152;28;20053;-70
2022/09/29 02:00:58;;;;;;;;;;;7.30;99.90;;;;;;4963536;28;20049;-70
2022/09/29 02:03:33;;;;;;;5.47;3.92;;;7.20;99.90;;;;;;4979045;28;19917;-70
2022/09/29 02:06:09;;;;;;;4.38;2.70;;;7.20;99.90;;;;;;4979219;28;20038;-70
2022/09/29 02:08:34;;;;;;;4.78;3.63;;;7.20;99.90;;;;;;4979217;28;20038;-70
2022/09/29 02:11:11;;;;;;;3.90;3.50;;;7.20;99.90;;;;;;4978943;28;20544;-70
2022/09/29 02:13:42;;;;;;;4.90;3.60;;;7.20;99.90;;;;;;4979191;28;20061;-70
2022/09/29 02:16:15;;;;;;;4.38;3.47;;;7.20;99.90;;;;;;4978688;28;20057;-70
2022/09/29 02:19:00;;;;;;;6.35;3.00;;;7.10;99.90;;;;;;4978695;28;20384;-70
2022/09/29 02:21:27;;;;;;;3.80;2.10;;;7.10;99.90;;;;;;4979035;28;20061;-70
2022/09/29 02:23:53;;;;;;;2.70;2.30;;;7.10;99.90;;;;;;4978623;28;20065;-70
2022/09/29 02:26:20;;;;;;;7.40;2.35;;;7.00;99.90;;;;;;4978824;28;20046;-70
2022/09/29 02:28:46;;;;;;;2.92;2.28;;;7.00;99.90;;;;;;4978821;28;20391;-70
2022/09/29 02:31:12;;;;;;;3.95;3.10;;;7.00;99.90;;;;;;4962311;28;20129;-70
2022/09/29 02:33:38;;;;;;;2.97;2.17;;;7.00;99.90;;;;;;4978745;28;20116;-70
2022/09/29 02:36:20;;;;;;;3.35;1.90;;;6.90;99.90;;;;;;4978666;28;20038;-70
2022/09/29 02:38:57;;;;;;;3.05;2.25;;;6.90;99.90;;;;;;4962388;28;20125;-70
2022/09/29 02:41:38;;;;;;;3.85;2.65;;;6.90;99.90;;;;;;4978545;28;20051;-70
2022/09/29 02:44:32;;;;;;;4.90;3.35;;;6.90;99.90;;;;;;4978424;28;20034;-70
2022/09/29 02:47:08;;;;;;;4.85;3.67;;;6.90;99.90;;;;;;4978179;28;20045;-70
2022/09/29 02:49:50;;;;;;;3.30;3.00;;;6.80;99.90;;;;;;4978305;28;20100;-70
2022/09/29 02:52:58;;;;;;;5.50;3.42;;;6.90;99.90;;;;;;4995668;28;20038;-70
2022/09/29 02:55:26;;;;;;;5.13;3.47;;;6.90;99.90;;;;;;4942623;28;20061;-70
2022/09/29 02:57:55;;;;;;;6.65;4.05;;;6.80;99.90;;;;;;4978002;28;20044;-70
2022/09/29 03:00:21;;;;;;;4.75;3.70;;;6.80;99.90;;;;;;4978225;28;20051;-70
2022/09/29 03:02:47;;;;;;;5.05;3.45;;;6.80;99.90;;;;;;4977988;28;20042;-70
2022/09/29 03:05:15;;;;;;;8.82;3.53;;;6.80;99.90;;;;;;4977893;28;20041;-70
2022/09/29 03:07:41;;;;;;;7.25;3.13;;;6.80;99.90;;;;;;4961632;28;20502;-70
2022/09/29 03:10:08;;;;;;;6.63;3.10;;;6.70;99.90;;;;;;4978094;28;20083;-70
2022/09/29 03:12:34;;;;;;;84.90;4.85;;;6.70;99.90;;;;;;4977756;28;20122;-70
2022/09/29 03:15:00;;;;;;;16.65;3.70;;;6.70;99.90;;;;;;4977982;28;20141;-70
2022/09/29 03:17:25;;;;;;;23.20;3.78;;;6.70;99.90;;;;;;4977370;28;20455;-70
2022/09/29 03:19:51;;;;;;;3.13;2.80;;;6.60;99.90;;;;;;4977864;28;20042;-70
2022/09/29 03:22:17;;;;;;;6.95;3.17;;;6.60;99.90;;;;;;4977573;28;20038;-70
2022/09/29 03:24:43;;;;;;;3.03;2.72;;;6.60;99.90;;;;;;4977771;28;20038;-70
2022/09/29 03:27:09;;;;;;;3.17;2.72;;;6.60;99.90;;;;;;4977400;28;20494;-70
2022/09/29 03:29:35;;;;;;;3.03;2.75;;;6.60;99.90;;;;;;4977441;28;20038;-70
2022/09/29 03:32:01;;;;;;;3.47;2.65;;;6.60;99.90;;;;;;4961384;28;20054;-70
2022/09/29 03:34:27;;;;;;;4.03;3.55;;;6.60;99.90;;;;;;4977628;28;20050;-70
2022/09/29 03:36:52;;;;;;;6.90;4.35;;;6.60;99.90;;;;;;4977474;28;20380;-70
2022/09/29 03:39:18;;;;;;;4.05;3.65;;;6.60;99.90;;;;;;4961272;28;20426;-70
2022/09/29 03:41:43;;;;;;;21.70;2.72;;;6.60;99.90;;;;;;4977482;28;20038;-70
2022/09/29 03:44:09;;;;;;;44.33;4.03;;;6.60;99.90;;;;;;4976735;28;20038;-70
2022/09/29 03:46:35;;;;;;;14.27;3.10;;;6.50;99.90;;;;;;4977063;28;20109;-70
2022/09/29 03:49:00;;;;;;;26.40;3.55;;;6.40;99.90;;;;;;4977109;28;20082;-70
2022/09/29 03:51:26;;;;;;;12.60;3.30;;;6.40;99.90;;;;;;4977067;28;20415;-70
2022/09/29 03:53:52;;;;;;;26.20;3.60;;;6.40;99.90;;;;;;4977278;28;20045;-70
2022/09/29 03:56:18;;;;;;;15.07;3.40;;;6.40;99.90;;;;;;4976960;28;20101;-70
2022/09/29 03:58:43;;;;;;;61.03;5.20;;;6.40;99.90;;;;;;4976879;28;20042;-70
2022/09/29 04:01:09;;;;;;;16.95;3.78;;;6.40;99.90;;;;;;4976881;28;20045;-70
2022/09/29 04:03:34;;;;;;;77.80;4.97;;;6.40;99.90;;;;;;4976894;28;20049;-70
2022/09/29 04:06:00;;;;;;;82.38;5.53;;;6.40;99.90;;;;;;4976753;28;20125;-70
2022/09/29 04:08:25;;;;;;;47.25;4.30;;;6.40;99.90;;;;;;4960767;28;20049;-70
2022/09/29 04:10:51;;;;;;;46.10;3.78;;;6.40;99.90;;;;;;4976726;28;20078;-70
2022/09/29 04:13:17;;;;;;;49.50;4.00;;;6.40;99.90;;;;;;4976726;28;20050;-70
2022/09/29 04:15:42;;;;;;;25.13;3.38;;;6.40;99.90;;;;;;4976542;28;20125;-70
2022/09/29 04:18:08;;;;;;;25.10;3.78;;;6.30;99.90;;;;;;4976630;28;20125;-70
2022/09/29 04:20:33;;;;;;;33.53;3.85;;;6.30;99.90;;;;;;4976632;28;20089;-70
2022/09/29 04:23:00;;;;;;;19.52;3.42;;;6.30;99.90;;;;;;4976606;28;20062;-70
2022/09/29 04:25:26;;;;;;;12.68;3.22;;;6.30;99.90;;;;;;4994168;28;20040;-70
2022/09/29 04:27:52;;;;;;;13.45;2.90;;;6.30;99.90;;;;;;4993944;28;20049;-70
2022/09/29 04:30:18;;;;;;;8.35;2.53;;;6.20;99.90;;;;;;4994457;28;20434;-70
2022/09/29 04:32:43;;;;;;;7.15;2.70;;;6.20;99.90;;;;;;4994126;28;20041;-70
2022/09/29 04:35:09;;;;;;;9.85;3.42;;;6.20;99.90;;;;;;4976454;28;20042;-70
2022/09/29 04:37:35;;;;;;;14.48;2.83;;;6.20;99.90;;;;;;4994251;28;20038;-70
2022/09/29 04:40:02;;;;;;;16.55;2.83;;;6.20;99.90;;;;;;4993873;28;20506;-70
2022/09/29 04:42:27;;;;;;;7.70;2.47;;;6.10;99.90;;;;;;4976361;28;20042;-70
2022/09/29 04:44:53;;;;;;;15.00;2.80;;;6.10;99.90;;;;;;4976374;28;20046;-69
2022/09/29 04:47:18;;;;;;;7.28;2.50;;;6.10;99.90;;;;;;4976215;28;20050;-69
2022/09/29 04:49:44;;;;;;;15.50;2.88;;;6.10;99.90;;;;;;4976410;28;20062;-69
2022/09/29 04:52:13;;;;;;;9.85;3.30;;;6.00;99.90;;;;;;4976324;28;20042;-69
2022/09/29 04:54:39;;;;;;;21.35;3.20;;;6.00;99.90;;;;;;4978191;28;20121;-69
2022/09/29 04:57:05;;;;;;;14.32;3.75;;;6.00;99.90;;;;;;4980166;28;20129;-69
2022/09/29 04:59:31;;;;;;;11.73;3.20;;;6.00;99.90;;;;;;4980184;28;20046;-69
2022/09/29 05:01:56;;;;;;;13.48;3.38;;;6.00;99.90;;;;;;4980180;28;20034;-69
2022/09/29 05:04:22;;;;;;;33.47;3.28;;;6.00;99.90;;;;;;4980348;28;20034;-69
2022/09/29 05:06:47;;;;;;;23.02;3.72;;;6.00;99.90;;;;;;4980251;28;20404;-69
2022/09/29 05:09:13;;;;;;;30.98;3.70;;;6.00;99.90;;;;;;4980054;28;20507;-69
2022/09/29 05:11:39;;;;;;;19.90;3.95;;;6.00;99.90;;;;;;4980223;28;20057;-69
2022/09/29 05:14:04;;;;;;;17.25;3.28;;;5.90;99.90;;;;;;4963869;28;20046;-70
2022/09/29 05:16:31;;;;;;;37.28;4.20;;;5.90;99.90;;;;;;4979938;28;20046;-70
2022/09/29 05:18:56;;;;;;;32.30;4.00;;;5.90;99.90;;;;;;4979800;28;20046;-70
2022/09/29 05:21:22;;;;;;;13.88;3.35;;;5.90;99.90;;;;;;4979826;28;20095;-70
2022/09/29 05:23:48;;;;;;;32.33;4.38;;;5.90;99.90;;;;;;4963695;28;20047;-70
2022/09/29 05:26:13;;;;;;;25.52;3.75;;;5.90;99.90;;;;;;4979653;28;20049;-69
2022/09/29 05:28:44;;;;;;;33.88;4.00;;;5.80;99.90;;;;;;4979944;28;20054;-69
2022/09/29 05:31:09;;;;;;;21.00;3.15;;;5.80;99.90;;;;;;4963597;28;20090;-69
2022/09/29 05:33:36;;;;;;;16.90;3.80;;;5.80;99.90;;;;;;4979854;28;20123;-69
2022/09/29 05:36:06;;;;;;;10.13;3.08;;;5.80;99.90;;;;;;4979525;28;20077;-69
2022/09/29 05:38:34;;;;;;;10.00;2.92;;;5.80;99.90;;;;;;4979381;28;20043;-69
2022/09/29 05:41:03;;;;;;;6.43;2.72;;;5.80;99.90;;;;;;4979468;28;20057;-69
2022/09/29 05:43:29;;;;;;;4.60;2.70;;;5.80;99.90;;;;;;4979631;28;20053;-69
2022/09/29 05:46:00;;;;;;;4.72;3.13;;;5.80;99.90;;;;;;4979332;28;20048;-69
2022/09/29 05:48:28;;;;;;;3.00;2.53;;;5.80;99.90;;;;;;4979666;28;20042;-69
2022/09/29 05:50:53;;;;;;;5.35;3.30;;;5.80;99.90;;;;;;4979321;28;20056;-69
2022/09/29 05:53:19;;;;;;;3.90;3.50;;;5.80;99.90;;;;;;4979281;28;20038;-69
2022/09/29 05:55:44;;;;;;;4.05;2.90;;;5.80;99.90;;;;;;4979154;28;20129;-69
2022/09/29 05:58:10;;;;;;;3.95;3.47;;;5.80;99.90;;;;;;4979268;28;20064;-69
2022/09/29 06:00:36;;;;;;;6.85;3.38;;;5.80;99.90;;;;;;4979106;28;20458;-69
2022/09/29 06:03:02;;;;;;;4.78;3.42;;;5.80;99.90;;;;;;4979050;28;20042;-69
2022/09/29 06:05:28;;;;;;;5.30;3.65;;;5.90;99.90;;;;;;4978234;28;20039;-70
2022/09/29 06:07:54;;;;;;;4.35;3.70;;;5.90;99.90;;;;;;4978995;28;20074;-70
2022/09/29 06:10:20;;;;;;;4.30;3.90;;;5.90;99.90;;;;;;4978937;28;20118;-69
2022/09/29 06:12:46;;;;;;;4.53;4.07;;;5.90;99.90;;;;;;4978903;28;20046;-69
2022/09/29 06:15:12;;;;;;;4.32;3.92;;;6.00;99.90;;;;;;4963038;28;20095;-69
2022/09/29 06:17:37;;;;;;;7.85;4.70;;;6.00;99.90;;;;;;4978870;28;20069;-69
2022/09/29 06:20:05;;;;;;;8.82;4.20;;;6.00;99.90;;;;;;4978787;28;20414;-70
2022/09/29 06:22:31;;;;;;;5.00;4.50;;;6.10;99.90;;;;;;4978688;28;20051;-70
2022/09/29 06:24:57;;;;;;;8.90;5.53;;;6.10;99.90;;;;;;4978739;28;20042;-70
2022/09/29 06:27:23;;;;;;;13.02;5.30;;;6.10;99.90;;;;;;4978528;28;20046;-70
2022/09/29 06:29:49;;;;;;;27.17;6.25;;;6.20;99.90;;;;;;4978550;28;20038;-70
2022/09/29 06:32:15;;;;;;;16.05;6.13;;;6.20;99.90;;;;;;4978823;28;20049;-70
2022/09/29 06:37:33;;;;;;;6.13;5.53;;;6.20;99.90;;;;;;4995951;28;20458;-70
2022/09/29 06:37:35;;;;;;;10.68;5.75;;;6.20;99.90;;;;;;4978292;28;20101;-70
2022/09/29 06:40:03;;;;;;;8.00;5.38;;;6.30;99.90;;;;;;4978489;28;20066;-70
2022/09/29 06:42:28;;;;;;;14.57;5.50;;;6.30;99.90;;;;;;4978378;28;20138;-70
2022/09/29 06:44:54;;;;;;;10.90;4.90;;;6.40;99.90;;;;;;4978295;28;20041;-70
2022/09/29 06:47:20;;;;;;;12.07;5.35;;;6.40;99.90;;;;;;4978209;28;20090;-70
2022/09/29 06:49:45;;;;;;;6.00;5.40;;;6.40;99.90;;;;;;4978265;28;20050;-70
2022/09/29 06:52:11;;;;;;;9.93;5.43;;;6.50;99.90;;;;;;4978456;28;20466;-70
2022/09/29 06:54:36;;;;;;;7.47;5.15;;;6.50;99.90;;;;;;4978151;28;20474;-70
2022/09/29 06:57:02;;;;;;;6.30;5.45;;;6.50;99.90;;;;;;4978268;28;20125;-70
2022/09/29 06:59:27;;;;;;;6.60;6.00;;;6.60;99.90;;;;;;4995933;28;20506;-70
2022/09/29 07:01:53;;;;;;;7.00;5.88;;;6.60;99.90;;;;;;4978283;28;20049;-70
2022/09/29 07:04:19;;;;;;;6.85;5.75;;;6.70;99.90;;;;;;4977954;28;20096;-70
2022/09/29 07:06:45;;;;;;;7.13;6.32;;;6.70;99.90;;;;;;4977848;28;20046;-70
2022/09/29 07:09:17;;;;;;;8.02;6.10;;;6.90;99.90;;;;;;4977863;28;20046;-69
2022/09/29 07:11:46;;;;;;;9.40;7.28;;;7.00;99.90;;;;;;4977798;28;20053;-69
2022/09/29 07:14:16;;;;;;;11.07;8.57;;;7.10;99.90;;;;;;4977977;28;20073;-69
2022/09/29 07:16:42;;;;;;;13.80;10.07;;;7.20;99.90;;;;;;4977567;28;20042;-69
2022/09/29 07:19:08;;;;;;;11.10;9.13;;;7.20;99.90;;;;;;4993232;28;20509;-70
2022/09/29 07:21:34;;;;;;;9.85;8.88;;;7.30;99.90;;;;;;4977725;28;20034;-70
2022/09/29 07:23:59;;;;;;;11.13;9.45;;;7.30;99.90;;;;;;4995340;28;20034;-70
2022/09/29 07:26:25;;;;;;;11.95;10.60;;;7.30;99.90;;;;;;4995020;28;20046;-69
2022/09/29 07:28:52;;;;;;;10.65;9.55;;;7.40;99.90;;;;;;4978007;28;20073;-70
2022/09/29 07:31:20;;;;;;;12.38;10.60;;;7.50;99.90;;;;;;4977690;28;20054;-70
2022/09/29 07:33:48;;;;;;;14.82;10.88;;;7.50;99.90;;;;;;4993587;28;20042;-70
2022/09/29 07:36:16;;;;;;;11.65;9.98;;;7.60;99.90;;;;;;4993634;28;20081;-70
2022/09/29 07:38:45;;;;;;;12.98;11.13;;;7.60;99.90;;;;;;4977199;28;20101;-70
2022/09/29 07:41:11;;;;;;;12.90;10.35;;;7.70;99.90;;;;;;4977326;28;20117;-70
2022/09/29 07:43:37;;;;;;;12.63;11.32;;;7.80;99.90;;;;;;4977569;28;20048;-70
2022/09/29 07:46:03;;;;;;;12.85;11.38;;;7.80;99.90;;;;;;4977345;28;20077;-70
2022/09/29 07:48:30;;;;;;;13.10;11.68;;;7.90;99.90;;;;;;4977087;28;20434;-69
2022/09/29 07:51:01;;;;;;;15.77;12.88;;;8.00;99.90;;;;;;4977089;28;20502;-70
2022/09/29 07:53:27;;;;;;;12.93;11.48;;;8.10;99.90;;;;;;4977124;28;20042;-70
2022/09/29 07:55:52;;;;;;;17.08;12.18;;;8.10;99.90;;;;;;4976930;28;20117;-70
2022/09/29 07:58:18;;;;;;;15.90;13.10;;;8.20;99.90;;;;;;4976889;28;20099;-70
2022/09/29 08:00:43;;;;;;;13.52;12.10;;;8.40;99.90;;;;;;4993362;28;20046;-70
2022/09/29 08:03:09;;;;;;;15.77;11.85;;;8.60;99.90;;;;;;4976866;28;20042;-70
2022/09/29 08:05:35;;;;;;;13.27;11.88;;;9.00;99.90;;;;;;4976845;28;20038;-70
2022/09/29 08:08:04;;;;;;;13.18;11.55;;;9.50;99.90;;;;;;4976854;28;20053;-70
2022/09/29 08:10:31;;;;;;;12.10;10.85;;;10.00;99.90;;;;;;4976728;28;20096;-70
2022/09/29 08:12:58;;;;;;;11.98;10.77;;;10.70;99.90;;;;;;4977246;28;20134;-70
2022/09/29 08:15:24;;;;;;;12.40;11.05;;;11.40;99.90;;;;;;4994225;28;20042;-70
2022/09/29 08:17:53;;;;;;;11.95;10.77;;;12.40;99.90;;;;;;4976515;28;20054;-70
2022/09/29 08:20:20;;;;;;;10.38;9.27;;;13.40;99.90;;;;;;4976968;28;20034;-70
2022/09/29 08:22:47;;;;;;;13.07;9.88;;;14.40;99.90;;;;;;4976623;28;20034;-70
2022/09/29 08:25:13;;;;;;;12.70;9.10;;;15.30;99.90;;;;;;4976577;28;20045;-70
2022/09/29 08:27:38;;;;;;;9.18;8.23;;;16.20;99.90;;;;;;4960242;28;20049;-70
2022/09/29 08:30:05;;;;;;;12.60;8.32;;;17.10;99.90;;;;;;4976428;28;20034;-70
2022/09/29 08:32:30;;;;;;;8.07;7.28;;;17.70;99.90;;;;;;4976693;28;20552;-70
2022/09/29 08:34:56;;;;;;;8.13;7.32;;;18.30;99.90;;;;;;4976383;28;20042;-71
2022/09/29 08:37:21;;;;;;;7.88;7.07;;;18.80;97.40;;;;;;4960266;28;20042;-70
2022/09/29 08:39:48;;;;;;;9.98;6.18;;;19.30;95.40;;;;;;4976808;28;20053;-70
2022/09/29 08:42:37;;;;;;;7.65;6.43;;;19.80;93.10;;;;;;4976349;28;20046;-70
2022/09/29 08:45:10;;;;;;;8.30;6.10;;;20.20;93.10;;;;;;4976670;28;20042;-70
2022/09/29 08:47:56;;;;;;;;;;;20.50;90.40;;;;;;4976973;28;20046;-70
2022/09/29 08:50:32;;;;;;;8.75;6.50;;;20.70;88.40;;;;;;4976844;28;19918;-70
2022/09/29 08:53:04;;;;;;;8.55;5.95;;;21.20;85.50;;;;;;4976347;28;20042;-70
2022/09/29 08:55:42;;;;;;;7.53;5.55;;;21.40;82.70;;;;;;4976243;28;20085;-70
2022/09/29 08:58:11;;;;;;;6.32;5.63;;;21.90;79.50;;;;;;4976353;28;20070;-70
2022/09/29 09:00:55;;;;;;;7.03;4.90;;;22.30;76.50;;;;;;4993986;28;20038;-70
2022/09/29 09:03:46;;;;;;;6.15;5.20;;;22.70;72.60;;;;;;4977405;28;20064;-71
2022/09/29 09:06:17;;;;;;;8.25;5.10;;;23.10;70.70;;;;;;4976270;28;20035;-71
2022/09/29 09:08:49;;;;;;;7.85;5.18;;;23.30;68.10;;;;;;4976390;28;20042;-71
2022/09/29 09:11:26;;;;;;;5.43;4.38;;;23.50;67.30;;;;;;4976134;28;20518;-70
2022/09/29 09:14:13;;;;;;;7.20;4.68;;;23.70;66.80;;;;;;4993829;28;20125;-70
2022/09/29 09:17:25;;;;;;;8.07;4.90;;;23.80;67.10;;;;;;4976160;28;20181;-70
2022/09/29 09:20:03;;;;;;;5.40;4.50;;;24.00;67.70;;;;;;4914647;29;20139;-70
2022/09/29 09:22:44;;;;;;;6.97;4.03;;;24.20;64.10;;;;;;4898846;29;20569;-70
2022/09/29 09:25:22;;;;;;;6.07;4.13;;;24.30;61.80;;;;;;4953385;28;20133;-70
2022/09/29 09:28:05;;;;;;;5.93;3.75;;;24.40;62.40;;;;;;4975936;28;20050;-70
2022/09/29 09:30:40;;;;;;;5.35;4.18;;;24.60;62.60;;;;;;4976250;28;20052;-70
2022/09/29 09:33:15;;;;;;;5.15;4.07;;;24.70;62.30;;;;;;4976198;28;20046;-70
2022/09/29 09:35:57;;;;;;;3.90;3.45;;;24.70;61.90;;;;;;4959888;28;20105;-70
2022/09/29 09:38:27;;;;;;;5.15;3.30;;;24.80;61.00;;;;;;4975857;28;20046;-70
2022/09/29 09:40:56;;;;;;;6.53;3.97;;;24.90;59.30;;;;;;4976814;28;20038;-70
2022/09/29 09:43:39;;;;;;;3.75;3.33;;;25.00;59.10;;;;;;4996973;28;20049;-70
2022/09/29 09:46:20;;;;;;;4.32;3.50;;;25.00;59.50;;;;;;4979443;28;20034;-70
2022/09/29 09:49:00;;;;;;;5.35;3.97;;;25.10;59.80;;;;;;4996825;28;20477;-70
2022/09/29 09:51:48;;;;;;;4.93;2.70;;;25.20;58.40;;;;;;4963221;28;20081;-70
2022/09/29 09:54:32;;;;;;;4.68;3.30;;;25.20;58.20;;;;;;4979558;28;20050;-70
2022/09/29 09:57:09;;;;;;;4.03;3.28;;;25.20;59.50;;;;;;4963379;28;20038;-70
2022/09/29 09:59:45;;;;;;;5.80;3.20;;;25.20;59.70;;;;;;4979075;28;20050;-70
2022/09/29 10:02:18;;;;;;;3.92;3.20;;;25.10;59.60;;;;;;4963091;28;20121;-71
2022/09/29 10:04:45;;;;;;;5.03;3.15;;;24.80;60.70;;;;;;4979468;28;20038;-70
2022/09/29 10:07:11;;;;;;;4.82;2.80;;;24.30;61.20;;;;;;4979230;28;20073;-70
2022/09/29 10:09:36;;;;;;;3.53;3.03;;;24.10;61.20;;;;;;4979039;28;20503;-70
2022/09/29 10:12:02;;;;;;;3.42;2.72;;;24.00;62.10;;;;;;4978977;28;20042;-70
2022/09/29 10:14:28;;;;;;;6.78;3.25;;;24.00;62.80;;;;;;4978923;28;20046;-70
2022/09/29 10:16:57;;;;;;;4.10;3.65;;;23.90;64.30;;;;;;4978662;28;20039;-70
2022/09/29 10:19:57;;;;;;;3.22;2.40;;;23.80;64.50;;;;;;4978759;28;20042;-70
2022/09/29 10:22:24;;;;;;;3.50;3.10;;;23.60;63.20;;;;;;4979082;28;20050;-70
2022/09/29 10:25:04;;;;;;;4.13;3.25;;;23.50;65.00;;;;;;4978670;28;20404;-70
2022/09/29 10:27:30;;;;;;;3.78;2.65;;;23.30;67.20;;;;;;4978592;28;20535;-70
2022/09/29 10:29:57;;;;;;;3.08;2.50;;;23.20;66.40;;;;;;4978914;28;20067;-70
2022/09/29 10:32:36;;;;;;;3.72;2.97;;;23.10;67.40;;;;;;4978624;28;20074;-70
2022/09/29 10:35:17;;;;;;;4.03;2.30;;;22.80;69.10;;;;;;4978516;28;20057;-70
2022/09/29 10:37:59;;;;;;;2.88;1.80;;;22.70;68.60;;;;;;4979164;28;20034;-70
2022/09/29 10:40:24;;;;;;;4.13;2.30;;;22.50;69.60;;;;;;4978505;28;20054;-70
2022/09/29 10:42:50;;;;;;;3.88;2.25;;;22.40;69.30;;;;;;4978631;28;20046;-70
2022/09/29 10:45:21;;;;;;;2.85;2.20;;;22.30;69.30;;;;;;4978328;28;20053;-70
2022/09/29 10:47:56;;;;;;;3.35;2.13;;;22.20;66.10;;;;;;4978296;28;20030;-70
2022/09/29 10:50:26;;;;;;;4.28;3.05;;;22.20;68.50;;;;;;4978233;28;20073;-70
2022/09/29 10:52:55;;;;;;;4.13;2.70;;;22.30;72.80;;;;;;4977962;28;20048;-70
2022/09/29 10:55:46;;;;;;;3.67;1.85;;;22.40;73.30;;;;;;4978342;28;20487;-70
2022/09/29 10:58:28;;;;;;;4.03;1.80;;;22.50;68.30;;;;;;4978047;28;20047;-70
2022/09/29 11:01:13;;;;;;;3.05;1.30;;;22.40;66.70;;;;;;4978044;28;20054;-70
2022/09/29 11:03:47;;;;;;;2.33;1.08;;;22.40;66.00;;;;;;4977974;28;20034;-70
2022/09/29 11:06:13;;;;;;;6.55;2.40;;;22.50;69.00;;;;;;4977974;28;20070;-70
2022/09/29 11:09:19;;;;;;;4.00;1.70;;;22.40;70.60;;;;;;4977942;28;20082;-70
2022/09/29 11:11:47;;;;;;;3.72;1.65;;;22.40;70.90;;;;;;4964534;28;20480;-70
2022/09/29 11:14:43;;;;;;;1.95;1.30;;;22.50;73.10;;;;;;4977823;28;20124;-70
2022/09/29 11:17:31;;;;;;;2.70;1.52;;;22.60;68.30;;;;;;4961245;28;20144;-70
2022/09/29 11:20:00;;;;;;;3.20;1.50;;;22.70;69.80;;;;;;4977742;28;20057;-70
2022/09/29 11:22:57;;;;;;;2.65;1.30;;;22.80;68.70;;;;;;4977923;28;20053;-70
2022/09/29 11:25:49;;;;;;;2.38;1.27;;;22.90;66.40;;;;;;4977780;28;20084;-70
2022/09/29 11:29:00;;;;;;;3.05;1.42;;;23.00;68.70;;;;;;4938880;28;20137;-70
2022/09/29 11:31:41;;;;;;;3.05;1.50;;;23.10;64.20;;;;;;4948394;28;20109;-70
2022/09/29 11:34:39;;;;;;;3.13;1.45;;;23.30;65.50;;;;;;4977411;28;20053;-70
2022/09/29 11:37:21;;;;;;;2.95;1.10;;;23.40;62.20;;;;;;4977484;28;20052;-70
2022/09/29 11:40:19;;;;;;;2.83;1.13;;;23.50;63.30;;;;;;4977201;28;20078;-70
2022/09/29 11:42:50;;;;;;;2.60;1.50;;;23.60;61.00;;;;;;4977258;28;20053;-70
2022/09/29 11:45:22;;;;;;;2.65;1.70;;;23.80;62.30;;;;;;4977239;28;20383;-70
2022/09/29 11:48:03;;;;;;;1.85;1.33;;;23.80;59.50;;;;;;4977253;28;20490;-70
2022/09/29 11:50:33;;;;;;;6.47;1.85;;;23.90;63.20;;;;;;4994541;28;20447;-70
2022/09/29 11:53:13;;;;;;;2.83;1.45;;;24.10;61.50;;;;;;4977175;28;20042;-70
2022/09/29 11:56:12;;;;;;;2.92;1.45;;;24.10;62.50;;;;;;4977236;28;20038;-70
2022/09/29 11:59:15;;;;;;;2.03;0.82;;;24.10;60.60;;;;;;4951395;28;20081;-70
2022/09/29 12:02:01;;;;;;;1.42;1.00;;;23.90;60.10;;;;;;4977228;28;20042;-70
2022/09/29 12:04:52;;;;;;;3.03;1.45;;;23.50;59.70;;;;;;4976368;28;20552;-70
2022/09/29 12:07:56;;;;;;;2.35;1.10;;;23.30;61.00;;;;;;4976870;28;20407;-70
2022/09/29 12:10:38;;;;;;;1.85;1.00;;;23.20;60.60;;;;;;4976852;28;20129;-70
2022/09/29 12:13:09;;;;;;;2.90;1.40;;;23.20;60.90;;;;;;4976737;28;20384;-70
2022/09/29 12:15:52;;;;;;;1.85;1.02;;;23.40;59.50;;;;;;4976867;28;20058;-70
2022/09/29 12:18:44;;;;;;;5.55;1.38;;;23.50;59.20;;;;;;4976658;28;20042;-70
2022/09/29 12:21:12;;;;;;;2.00;1.33;;;23.50;60.40;;;;;;4976725;28;20126;-70
2022/09/29 12:23:40;;;;;;;3.28;1.75;;;23.10;61.60;;;;;;4976546;28;20093;-70
2022/09/29 12:26:16;;;;;;;2.33;1.67;;;22.80;63.60;;;;;;4976733;28;20057;-70
2022/09/29 12:29:23;;;;;;;1.85;1.27;;;22.70;61.60;;;;;;4976650;28;20046;-70
2022/09/29 12:31:53;;;;;;;3.08;0.93;;;22.70;64.10;;;;;;4976457;28;20181;-70
2022/09/29 12:34:33;;;;;;;2.47;1.38;;;23.00;64.10;;;;;;4976622;28;20050;-70
2022/09/29 12:37:36;;;;;;;2.80;1.42;;;23.20;62.40;;;;;;4976431;28;20050;-70
2022/09/29 12:40:29;;;;;;;2.27;1.50;;;23.40;58.40;;;;;;4962853;28;20185;-70
2022/09/29 12:43:18;;;;;;;2.45;1.33;;;23.50;61.50;;;;;;4976439;28;20049;-70
2022/09/29 12:46:05;;;;;;;2.47;1.20;;;23.70;58.70;;;;;;4976260;28;20042;-70
2022/09/29 12:48:50;;;;;;;2.17;1.40;;;23.60;57.80;;;;;;4976221;28;20054;-70
2022/09/29 12:51:39;;;;;;;1.85;1.17;;;23.30;59.00;;;;;;4976305;28;20101;-73
2022/09/29 12:54:27;;;;;;;2.38;1.10;;;23.20;59.10;;;;;;4976366;28;20499;-73
2022/09/29 12:57:19;;;;;;;2.90;1.20;;;23.10;59.10;;;;;;4976188;28;20418;-73
2022/09/29 13:00:10;;;;;;;2.78;1.30;;;23.20;60.60;;;;;;4976204;28;20043;-73
2022/09/29 13:03:04;;;;;;;3.58;1.08;;;22.80;60.30;;;;;;4976152;28;20042;-73
2022/09/29 13:06:08;;;;;;;2.28;0.90;;;22.40;59.10;;;;;;4960017;28;20046;-73
2022/09/29 13:09:31;;;;;;;2.88;1.33;;;22.00;60.50;;;;;;4976223;28;20146;-71
2022/09/29 13:12:02;;;;;;;2.65;1.15;;;22.20;61.00;;;;;;4899161;29;20489;-71
2022/09/29 13:14:57;;;;;;;1.08;0.73;;;22.30;62.50;;;;;;4883385;29;20044;-71
2022/09/29 13:17:52;;;;;;;2.38;0.85;;;22.20;61.30;;;;;;4902695;29;20436;-71
2022/09/29 13:20:49;;;;;;;2.50;0.85;;;21.90;62.20;;;;;;4902634;29;20044;-71